Time,TemperatureF,DewpointF,PressureIn,WindDirection,WindDirectionDegrees,WindSpeedMPH,WindSpeedGustMPH,Humidity,HourlyPrecipIn,Conditions,Clouds,dailyrainin,SolarRadiationWatts/m^2,SoftwareType,DateUTC
2013-02-21 00:06:00,5.0,0.0,30.46,NNW,347,0.0,0.0,78,0.00,,,0.00,0,weatherlink.com 1.10,2013-02-21 06:06:00,
2013-02-21 00:21:00,4.7,-1.0,30.46,NNW,346,0.0,0.0,78,0.00,,,0.00,0,weatherlink.com 1.10,2013-02-21 06:21:00,
2013-02-21 00:36:00,4.4,-1.0,30.46,NNW,347,0.0,0.0,79,0.00,,,0.00,0,weatherlink.com 1.10,2013-02-21 06:36:00,
2013-02-21 00:51:00,4.8,0.0,30.46,NNW,347,0.0,0.0,79,0.00,,,0.00,0,weatherlink.com 1.10,2013-02-21 06:51:00,
2013-02-21 01:06:00,4.8,0.0,30.47,NNW,347,0.0,0.0,79,0.00,,,0.00,0,weatherlink.com 1.10,2013-02-21 07:06:00,
2013-02-21 01:21:00,5.5,1.0,30.47,NNW,347,0.0,0.0,80,0.00,,,0.00,0,weatherlink.com 1.10,2013-02-21 07:21:00,
2013-02-21 01:36:00,6.0,1.0,30.47,NNW,346,0.0,0.0,81,0.00,,,0.00,0,weatherlink.com 1.10,2013-02-21 07:36:00,
2013-02-21 01:52:00,5.4,0.0,30.48,NNW,347,0.0,0.0,79,0.00,,,0.00,0,weatherlink.com 1.10,2013-02-21 07:52:00,
2013-02-21 02:07:00,4.2,-1.0,30.49,NNW,347,0.0,0.0,79,0.00,,,0.00,0,weatherlink.com 1.10,2013-02-21 08:07:00,
2013-02-21 02:22:00,4.4,-1.0,30.49,NNW,346,0.0,0.0,80,0.00,,,0.00,0,weatherlink.com 1.10,2013-02-21 08:22:00,
2013-02-21 02:37:00,4.0,-1.0,30.49,NNW,346,0.0,0.0,81,0.00,,,0.00,0,weatherlink.com 1.10,2013-02-21 08:37:00,
2013-02-21 02:52:00,4.8,1.0,30.49,NNW,347,0.0,0.0,82,0.00,,,0.00,0,weatherlink.com 1.10,2013-02-21 08:52:00,
2013-02-21 03:07:00,4.8,0.0,30.48,NNW,347,0.0,1.0,81,0.00,,,0.00,0,weatherlink.com 1.10,2013-02-21 09:07:00,
2013-02-21 03:22:00,4.5,0.0,30.48,NNW,347,0.0,1.0,81,0.00,,,0.00,0,weatherlink.com 1.10,2013-02-21 09:22:00,
2013-02-21 03:37:00,5.3,1.0,30.48,NNW,346,0.0,1.0,82,0.00,,,0.00,0,weatherlink.com 1.10,2013-02-21 09:37:00,
2013-02-21 03:52:00,5.8,1.0,30.48,NNW,346,0.0,0.0,81,0.00,,,0.00,0,weatherlink.com 1.10,2013-02-21 09:52:00,
2013-02-21 04:08:00,5.9,1.0,30.47,NNW,347,0.0,0.0,81,0.00,,,0.00,0,weatherlink.com 1.10,2013-02-21 10:08:00,
2013-02-21 04:22:00,6.3,2.0,30.46,NNE,24,0.0,1.0,81,0.00,,,0.00,0,weatherlink.com 1.10,2013-02-21 10:22:00,
2013-02-21 04:37:00,6.7,2.0,30.45,NE,53,1.0,2.0,81,0.00,,,0.00,0,weatherlink.com 1.10,2013-02-21 10:37:00,
2013-02-21 04:53:00,6.8,2.0,30.44,NE,56,0.0,3.0,80,0.00,,,0.00,0,weatherlink.com 1.10,2013-02-21 10:53:00,
2013-02-21 05:07:00,6.7,2.0,30.43,NE,52,2.0,3.0,80,0.00,,,0.00,0,weatherlink.com 1.10,2013-02-21 11:07:00,
2013-02-21 05:23:00,6.7,2.0,30.40,ENE,67,2.0,6.0,80,0.00,,,0.00,0,weatherlink.com 1.10,2013-02-21 11:23:00,
2013-02-21 05:38:00,6.8,2.0,30.38,NNE,30,2.0,6.0,80,0.00,,,0.00,0,weatherlink.com 1.10,2013-02-21 11:38:00,
2013-02-21 05:53:00,6.9,2.0,30.36,ENE,65,0.0,7.0,80,0.00,,,0.00,0,weatherlink.com 1.10,2013-02-21 11:53:00,
2013-02-21 06:08:00,6.1,1.0,30.42,ENE,60,0.0,2.0,80,0.00,,,0.00,0,weatherlink.com 1.10,2013-02-21 12:08:00,
2013-02-21 06:23:00,3.6,-1.0,30.48,ENE,60,0.0,0.0,80,0.00,,,0.00,0,weatherlink.com 1.10,2013-02-21 12:23:00,
2013-02-21 06:38:00,3.1,-1.0,30.49,ENE,60,0.0,0.0,82,0.00,,,0.00,0,weatherlink.com 1.10,2013-02-21 12:38:00,
2013-02-21 06:53:00,3.4,-1.0,30.48,ENE,60,0.0,0.0,83,0.00,,,0.00,0,weatherlink.com 1.10,2013-02-21 12:53:00,
2013-02-21 07:08:00,4.7,1.0,30.48,ENE,60,0.0,0.0,83,0.00,,,0.00,0,weatherlink.com 1.10,2013-02-21 13:08:00,
2013-02-21 07:23:00,4.0,0.0,30.47,ENE,60,0.0,0.0,83,0.00,,,0.00,18,weatherlink.com 1.10,2013-02-21 13:23:00,
2013-02-21 07:38:00,5.1,1.0,30.48,ENE,59,0.0,0.0,83,0.00,,,0.00,39,weatherlink.com 1.10,2013-02-21 13:38:00,
2013-02-21 07:54:00,5.7,2.0,30.45,NE,55,0.0,2.0,83,0.00,,,0.00,62,weatherlink.com 1.10,2013-02-21 13:54:00,
2013-02-21 08:08:00,6.6,2.0,30.46,NE,45,0.0,2.0,82,0.00,,,0.00,91,weatherlink.com 1.10,2013-02-21 14:08:00,
2013-02-21 08:23:00,7.1,2.0,30.44,ENE,60,0.0,3.0,80,0.00,,,0.00,114,weatherlink.com 1.10,2013-02-21 14:23:00,
2013-02-21 08:39:00,7.9,3.0,30.44,NE,51,0.0,6.0,79,0.00,,,0.00,130,weatherlink.com 1.10,2013-02-21 14:39:00,
2013-02-21 08:54:00,8.3,3.0,30.44,NE,53,0.0,4.0,79,0.00,,,0.00,167,weatherlink.com 1.10,2013-02-21 14:54:00,
2013-02-21 09:09:00,9.2,4.0,30.43,NE,49,1.0,2.0,78,0.00,,,0.00,209,weatherlink.com 1.10,2013-02-21 15:09:00,
2013-02-21 09:24:00,10.9,5.0,30.42,NE,54,0.0,5.0,76,0.00,,,0.00,288,weatherlink.com 1.10,2013-02-21 15:24:00,
2013-02-21 09:39:00,11.6,5.0,30.41,ENE,58,0.0,4.0,75,0.00,,,0.00,269,weatherlink.com 1.10,2013-02-21 15:39:00,
2013-02-21 09:54:00,12.7,6.0,30.43,ENE,58,0.0,0.0,74,0.00,,,0.00,332,weatherlink.com 1.10,2013-02-21 15:54:00,
2013-02-21 10:09:00,14.4,7.0,30.43,ENE,57,0.0,0.0,71,0.00,,,0.00,350,weatherlink.com 1.10,2013-02-21 16:09:00,
2013-02-21 10:24:00,14.8,7.0,30.43,ENE,59,0.0,0.0,71,0.00,,,0.00,357,weatherlink.com 1.10,2013-02-21 16:24:00,
2013-02-21 10:54:00,16.2,8.0,30.43,ENE,59,0.0,0.0,69,0.00,,,0.00,415,weatherlink.com 1.10,2013-02-21 16:54:00,
2013-02-21 11:09:00,17.4,9.0,30.42,ENE,59,0.0,0.0,70,0.00,,,0.00,434,weatherlink.com 1.10,2013-02-21 17:09:00,
2013-02-21 11:25:00,18.0,9.0,30.42,ENE,59,0.0,0.0,68,0.00,,,0.00,422,weatherlink.com 1.10,2013-02-21 17:25:00,
2013-02-21 11:39:00,18.0,9.0,30.42,ENE,61,0.0,1.0,67,0.00,,,0.00,401,weatherlink.com 1.10,2013-02-21 17:39:00,
2013-02-21 11:54:00,19.1,10.0,30.41,ENE,61,0.0,0.0,67,0.00,,,0.00,536,weatherlink.com 1.10,2013-02-21 17:54:00,
2013-02-21 12:10:00,19.6,11.0,30.40,ENE,60,1.0,3.0,68,0.00,,,0.00,413,weatherlink.com 1.10,2013-02-21 18:10:00,
2013-02-21 12:25:00,18.3,9.0,30.38,NE,52,2.0,4.0,68,0.00,,,0.00,429,weatherlink.com 1.10,2013-02-21 18:25:00,
2013-02-21 12:40:00,18.6,10.0,30.37,NNE,23,1.0,6.0,68,0.00,,,0.00,418,weatherlink.com 1.10,2013-02-21 18:40:00,
2013-02-21 12:55:00,19.0,10.0,30.36,NE,44,0.0,5.0,67,0.00,,,0.00,464,weatherlink.com 1.10,2013-02-21 18:55:00,
2013-02-21 13:10:00,20.2,10.0,30.36,NE,36,2.0,5.0,66,0.00,,,0.00,545,weatherlink.com 1.10,2013-02-21 19:10:00,
2013-02-21 13:25:00,20.8,11.0,30.36,NE,52,0.0,5.0,65,0.00,,,0.00,552,weatherlink.com 1.10,2013-02-21 19:25:00,
2013-02-21 13:40:00,21.3,10.0,30.34,NNE,30,4.0,6.0,63,0.00,,,0.00,510,weatherlink.com 1.10,2013-02-21 19:40:00,
2013-02-21 13:56:00,21.5,11.0,30.33,NE,36,0.0,7.0,65,0.00,,,0.00,387,weatherlink.com 1.10,2013-02-21 19:56:00,
2013-02-21 14:10:00,21.6,11.0,30.32,NE,52,0.0,8.0,64,0.00,,,0.00,410,weatherlink.com 1.10,2013-02-21 20:10:00,
2013-02-21 14:25:00,21.9,11.0,30.31,ENE,58,2.0,5.0,63,0.00,,,0.00,380,weatherlink.com 1.10,2013-02-21 20:25:00,
2013-02-21 14:40:00,21.9,11.0,30.30,NE,42,0.0,6.0,64,0.00,,,0.00,385,weatherlink.com 1.10,2013-02-21 20:40:00,
2013-02-21 14:56:00,22.3,11.0,30.29,ENE,57,0.0,7.0,63,0.00,,,0.00,311,weatherlink.com 1.10,2013-02-21 20:56:00,
2013-02-21 15:10:00,22.1,12.0,30.29,ENE,59,3.0,7.0,64,0.00,,,0.00,279,weatherlink.com 1.10,2013-02-21 21:10:00,
2013-02-21 15:26:00,22.2,12.0,30.27,ENE,60,0.0,7.0,64,0.00,,,0.00,223,weatherlink.com 1.10,2013-02-21 21:26:00,
2013-02-21 15:41:00,22.2,12.0,30.27,NE,47,3.0,7.0,64,0.00,,,0.00,192,weatherlink.com 1.10,2013-02-21 21:41:00,
2013-02-21 15:56:00,22.3,12.0,30.27,NE,55,5.0,8.0,65,0.00,,,0.00,167,weatherlink.com 1.10,2013-02-21 21:56:00,
2013-02-21 16:11:00,22.5,12.0,30.27,NE,46,1.0,6.0,65,0.00,,,0.00,139,weatherlink.com 1.10,2013-02-21 22:11:00,
2013-02-21 16:26:00,22.1,12.0,30.27,ENE,59,0.0,6.0,66,0.00,,,0.00,95,weatherlink.com 1.10,2013-02-21 22:26:00,
2013-02-21 16:41:00,21.8,12.0,30.25,ENE,59,2.0,9.0,66,0.00,,,0.00,74,weatherlink.com 1.10,2013-02-21 22:41:00,
2013-02-21 16:56:00,21.5,12.0,30.25,NE,50,4.0,10.0,67,0.00,,,0.00,53,weatherlink.com 1.10,2013-02-21 22:56:00,
2013-02-21 17:11:00,21.2,12.0,30.25,ENE,76,1.0,7.0,68,0.00,,,0.00,32,weatherlink.com 1.10,2013-02-21 23:11:00,
2013-02-21 17:26:00,20.9,12.0,30.25,ENE,64,0.0,6.0,69,0.00,,,0.00,19,weatherlink.com 1.10,2013-02-21 23:26:00,
2013-02-21 17:41:00,20.7,12.0,30.24,ENE,65,0.0,5.0,69,0.00,,,0.00,9,weatherlink.com 1.10,2013-02-21 23:41:00,
2013-02-21 17:56:00,20.6,12.0,30.24,NE,55,1.0,6.0,70,0.00,,,0.00,0,weatherlink.com 1.10,2013-02-21 23:56:00,
2013-02-21 18:11:00,20.6,12.0,30.23,NE,51,5.0,9.0,69,0.00,,,0.00,0,weatherlink.com 1.10,2013-02-22 00:11:00,
2013-02-21 18:26:00,20.5,12.0,30.24,NE,49,6.0,8.0,69,0.00,,,0.00,0,weatherlink.com 1.10,2013-02-22 00:26:00,
2013-02-21 18:41:00,20.4,12.0,30.23,ENE,72,0.0,3.0,70,0.00,,,0.00,0,weatherlink.com 1.10,2013-02-22 00:41:00,
2013-02-21 18:57:00,20.4,12.0,30.23,NE,48,0.0,5.0,70,0.00,,,0.00,0,weatherlink.com 1.10,2013-02-22 00:57:00,
2013-02-21 19:12:00,20.3,12.0,30.22,NE,48,0.0,4.0,70,0.00,,,0.00,0,weatherlink.com 1.10,2013-02-22 01:12:00,
2013-02-21 19:27:00,20.2,12.0,30.21,NE,56,1.0,2.0,71,0.00,,,0.00,0,weatherlink.com 1.10,2013-02-22 01:27:00,
2013-02-21 19:42:00,20.2,12.0,30.22,NE,52,0.0,2.0,71,0.00,,,0.00,0,weatherlink.com 1.10,2013-02-22 01:42:00,
2013-02-21 19:57:00,20.2,13.0,30.22,NE,49,0.0,4.0,72,0.00,,,0.00,0,weatherlink.com 1.10,2013-02-22 01:57:00,
2013-02-21 20:12:00,20.4,12.0,30.21,ENE,57,1.0,5.0,70,0.00,,,0.00,0,weatherlink.com 1.10,2013-02-22 02:12:00,
2013-02-21 20:27:00,20.4,12.0,30.21,ENE,57,0.0,2.0,70,0.00,,,0.00,0,weatherlink.com 1.10,2013-02-22 02:27:00,
2013-02-21 20:42:00,20.3,12.0,30.21,NE,52,1.0,3.0,71,0.00,,,0.00,0,weatherlink.com 1.10,2013-02-22 02:42:00,
2013-02-21 20:57:00,20.3,12.0,30.20,NE,46,0.0,3.0,71,0.00,,,0.00,0,weatherlink.com 1.10,2013-02-22 02:57:00,
2013-02-21 21:12:00,20.3,13.0,30.19,NE,50,0.0,3.0,72,0.00,,,0.00,0,weatherlink.com 1.10,2013-02-22 03:12:00,
2013-02-21 21:28:00,20.2,13.0,30.18,NE,51,0.0,2.0,72,0.00,,,0.00,0,weatherlink.com 1.10,2013-02-22 03:28:00,
2013-02-21 21:42:00,20.3,13.0,30.18,ENE,67,0.0,3.0,72,0.00,,,0.00,0,weatherlink.com 1.10,2013-02-22 03:42:00,
2013-02-21 21:58:00,20.4,13.0,30.16,NE,55,2.0,4.0,72,0.00,,,0.00,0,weatherlink.com 1.10,2013-02-22 03:58:00,
2013-02-21 22:13:00,20.6,13.0,30.15,NE,38,1.0,4.0,71,0.00,,,0.00,0,weatherlink.com 1.10,2013-02-22 04:13:00,
2013-02-21 22:28:00,20.6,13.0,30.14,NE,40,0.0,10.0,71,0.00,,,0.00,0,weatherlink.com 1.10,2013-02-22 04:28:00,
2013-02-21 22:43:00,20.7,13.0,30.14,NE,42,0.0,8.0,71,0.00,,,0.00,0,weatherlink.com 1.10,2013-02-22 04:43:00,
2013-02-21 22:58:00,20.8,13.0,30.14,NE,51,0.0,5.0,71,0.00,,,0.00,0,weatherlink.com 1.10,2013-02-22 04:58:00,
2013-02-21 23:13:00,20.9,13.0,30.13,NE,54,3.0,5.0,71,0.00,,,0.00,0,weatherlink.com 1.10,2013-02-22 05:13:00,
2013-02-21 23:28:00,21.0,13.0,30.11,ENE,57,2.0,7.0,70,0.00,,,0.00,0,weatherlink.com 1.10,2013-02-22 05:28:00,
2013-02-21 23:43:00,21.2,13.0,30.11,NE,52,0.0,6.0,70,0.00,,,0.00,0,weatherlink.com 1.10,2013-02-22 05:43:00,
2013-02-21 23:58:00,21.4,13.0,30.10,ENE,58,3.0,8.0,71,0.00,,,0.00,0,weatherlink.com 1.10,2013-02-22 05:58:00,